createdAt,value
2019-05-07T00:01:07.675Z,74.15
2019-05-07T00:03:55.682Z,69.05
2019-05-07T00:06:43.995Z,75.52
2019-05-07T00:09:32.403Z,75.40
2019-05-07T00:12:22.882Z,77.87
2019-05-07T00:15:12.494Z,66.55
2019-05-07T00:18:02.973Z,66.45
2019-05-07T00:20:50.307Z,68.10
2019-05-07T00:23:38.655Z,64.67
2019-05-07T00:26:26.921Z,63.68
2019-05-07T00:29:14.901Z,67.53
2019-05-07T00:32:03.440Z,66.82
2019-05-07T00:34:54.305Z,62.93
2019-05-07T00:37:49.816Z,63.20
2019-05-07T00:40:39.917Z,62.98
2019-05-07T00:43:32.101Z,64.45
2019-05-07T00:46:22.587Z,69.12
2019-05-07T00:49:12.731Z,60.48
2019-05-07T00:52:02.843Z,61.80
2019-05-07T00:54:53.005Z,59.80
2019-05-07T00:57:42.891Z,58.70
2019-05-07T01:00:33.077Z,71.15
2019-05-07T01:03:22.230Z,58.42
2019-05-07T01:06:12.741Z,58.30
2019-05-07T01:09:00.379Z,59.48
2019-05-07T01:11:48.634Z,57.85
2019-05-07T01:14:37.116Z,58.50
2019-05-07T01:17:25.220Z,56.18
2019-05-07T01:20:13.443Z,57.13
2019-05-07T01:23:02.705Z,57.43
2019-05-07T01:28:32.852Z,55.75
2019-05-07T01:31:22.209Z,55.63
2019-05-07T01:34:12.245Z,54.20
2019-05-07T01:37:02.541Z,55.98
2019-05-07T01:39:52.791Z,54.42
2019-05-07T01:42:42.181Z,55.33
2019-05-07T01:45:43.172Z,62.38
2019-05-07T01:48:19.804Z,52.85
2019-05-07T01:51:08.366Z,54.18
2019-05-07T01:53:56.951Z,52.25
2019-05-07T01:56:45.612Z,53.30
2019-05-07T01:59:34.188Z,53.30
2019-05-07T02:02:24.040Z,53.33
2019-05-07T02:05:19.570Z,51.50
2019-05-07T02:08:09.365Z,50.50
2019-05-07T02:11:04.954Z,53.13
2019-05-07T02:13:53.067Z,51.18
2019-05-07T02:16:42.634Z,53.70
2019-05-07T02:19:32.749Z,66.72
2019-05-07T02:22:22.665Z,51.10
2019-05-07T02:25:12.604Z,51.08
2019-05-07T02:28:02.159Z,50.70
2019-05-07T02:30:53.544Z,65.65
2019-05-07T02:33:43.480Z,49.45
2019-05-07T02:36:33.707Z,50.50
2019-05-07T02:39:24.130Z,50.00
2019-05-07T02:42:13.069Z,49.15
2019-05-07T02:45:06.144Z,56.30
2019-05-07T02:47:54.588Z,48.87
2019-05-07T02:50:47.652Z,47.50
2019-05-07T02:53:49.704Z,48.70
2019-05-07T02:56:38.116Z,49.20
2019-05-07T02:59:26.022Z,47.98
2019-05-07T03:02:14.266Z,48.20
2019-05-07T03:05:05.346Z,47.15
2019-05-07T03:07:53.881Z,48.48
2019-05-07T03:10:43.456Z,47.93
2019-05-07T03:13:33.622Z,47.65
2019-05-07T03:16:38.120Z,51.88
2019-05-07T03:19:13.462Z,73.05
2019-05-07T03:22:03.902Z,46.70
2019-05-07T03:24:56.533Z,47.30
2019-05-07T03:30:35.949Z,46.02
2019-05-07T03:33:46.467Z,46.42
2019-05-07T03:39:48.351Z,45.75
2019-05-07T03:42:36.487Z,45.80
2019-05-07T03:45:33.483Z,47.05
2019-05-07T03:48:24.139Z,48.73
2019-05-07T03:51:14.164Z,45.23
2019-05-07T03:54:03.186Z,44.48
2019-05-07T03:56:53.026Z,45.65
2019-05-07T03:59:43.244Z,45.92
2019-05-07T04:02:33.292Z,47.67
2019-05-07T04:05:23.203Z,44.75
2019-05-07T04:08:13.534Z,44.98
2019-05-07T04:11:03.527Z,44.13
2019-05-07T04:13:53.533Z,44.38
2019-05-07T04:16:44.106Z,45.58
2019-05-07T04:19:33.048Z,44.63
2019-05-07T04:22:26.506Z,43.38
2019-05-07T04:25:25.713Z,43.02
2019-05-07T04:28:27.777Z,50.27
2019-05-07T04:31:16.178Z,42.87
2019-05-07T04:34:06.255Z,231.60
2019-05-07T04:36:54.469Z,44.05
2019-05-07T04:39:54.811Z,51.68
2019-05-07T04:42:43.265Z,68.10
2019-05-07T04:45:34.841Z,58.30
2019-05-07T04:48:23.713Z,57.03
2019-05-07T04:51:14.068Z,56.15
2019-05-07T04:54:03.539Z,128.45
2019-05-07T04:56:53.187Z,48.85
2019-05-07T04:59:42.869Z,53.65
2019-05-07T05:02:45.180Z,82.90
2019-05-07T05:05:33.793Z,63.87
2019-05-07T05:08:23.876Z,54.45
2019-05-07T05:11:12.897Z,52.15
2019-05-07T05:14:02.814Z,63.58
2019-05-07T05:16:52.497Z,48.83
2019-05-07T05:19:41.179Z,49.20
2019-05-07T05:22:47.579Z,49.77
2019-05-07T05:25:38.048Z,64.60
2019-05-07T05:28:27.332Z,48.20
2019-05-07T05:31:15.519Z,55.28
2019-05-07T05:34:03.659Z,61.35
2019-05-07T05:36:53.243Z,56.53
2019-05-07T05:39:42.610Z,52.75
2019-05-07T05:42:33.313Z,47.00
2019-05-07T05:45:39.363Z,66.47
2019-05-07T05:48:27.784Z,62.58
2019-05-07T05:51:34.100Z,49.85
2019-05-07T05:54:31.869Z,65.67
2019-05-07T05:57:23.040Z,49.77
2019-05-07T06:00:29.208Z,67.70
2019-05-07T06:03:22.770Z,51.95
2019-05-07T06:06:15.592Z,48.20
2019-05-07T06:09:16.485Z,43.95
2019-05-07T06:12:06.267Z,46.80
2019-05-07T06:15:05.175Z,62.43
2019-05-07T06:18:20.471Z,46.45
2019-05-07T06:20:59.043Z,73.62
2019-05-07T06:23:52.791Z,44.27
2019-05-07T06:26:42.549Z,47.55
2019-05-07T06:29:32.997Z,49.18
2019-05-07T06:32:22.918Z,47.53
2019-05-07T06:35:12.324Z,46.95
2019-05-07T06:38:03.636Z,49.13
2019-05-07T06:40:53.871Z,47.30
2019-05-07T06:43:46.475Z,86.50
2019-05-07T06:46:34.888Z,43.60
2019-05-07T06:49:23.036Z,60.70
2019-05-07T06:52:12.270Z,42.08
2019-05-07T06:55:03.082Z,40.48
2019-05-07T06:57:52.867Z,41.42
2019-05-07T07:00:44.682Z,39.95
2019-05-07T07:03:52.704Z,40.98
2019-05-07T07:06:48.190Z,42.23
2019-05-07T07:09:42.418Z,42.43
2019-05-07T07:12:33.103Z,40.98
2019-05-07T07:15:23.167Z,40.48
2019-05-07T07:18:12.308Z,41.33
2019-05-07T07:21:02.199Z,41.63
2019-05-07T07:23:52.371Z,42.03
2019-05-07T07:26:42.216Z,39.42
2019-05-07T07:29:35.398Z,83.17
2019-05-07T07:32:34.096Z,40.50
2019-05-07T07:35:22.612Z,39.27
2019-05-07T07:38:28.896Z,43.83
2019-05-07T07:41:22.238Z,39.73
2019-05-07T07:44:10.378Z,40.08
2019-05-07T07:46:58.713Z,39.23
2019-05-07T07:49:46.984Z,40.00
2019-05-07T07:52:35.696Z,50.00
2019-05-07T07:55:25.483Z,40.10
2019-05-07T07:58:24.426Z,40.38
2019-05-07T08:01:14.064Z,40.73
2019-05-07T08:04:02.943Z,38.50
2019-05-07T08:07:03.978Z,40.05
2019-05-07T08:09:52.316Z,38.00
2019-05-07T08:12:42.178Z,38.58
2019-05-07T08:15:32.834Z,38.92
2019-05-07T08:18:22.256Z,37.65
2019-05-07T08:21:12.044Z,38.78
2019-05-07T08:24:02.752Z,38.23
2019-05-07T08:26:51.884Z,38.42
2019-05-07T08:29:42.793Z,37.70
2019-05-07T08:32:32.644Z,49.03
2019-05-07T08:35:28.847Z,38.98
2019-05-07T08:38:17.380Z,38.92
2019-05-07T08:41:05.462Z,38.13
2019-05-07T08:44:08.089Z,37.10
2019-05-07T08:46:51.976Z,40.03
2019-05-07T08:49:43.412Z,38.58
2019-05-07T08:52:32.555Z,40.28
2019-05-07T08:55:21.799Z,43.42
2019-05-07T08:58:12.063Z,43.00
2019-05-07T09:01:02.893Z,40.23
2019-05-07T09:03:51.994Z,40.75
2019-05-07T09:06:42.917Z,40.83
2019-05-07T09:09:32.474Z,41.37
2019-05-07T09:12:22.762Z,39.18
2019-05-07T09:15:12.301Z,39.30
2019-05-07T09:18:02.065Z,45.78
2019-05-07T09:20:52.328Z,39.33
2019-05-07T09:23:42.296Z,39.88
2019-05-07T09:26:32.341Z,39.73
2019-05-07T09:29:29.243Z,40.12
2019-05-07T09:32:19.350Z,39.75
2019-05-07T09:35:21.711Z,38.60
2019-05-07T09:40:58.055Z,40.48
2019-05-07T09:43:46.503Z,39.10
2019-05-07T09:46:34.852Z,39.08
2019-05-07T09:49:23.236Z,38.85
2019-05-07T09:52:12.285Z,40.23
2019-05-07T09:55:10.982Z,40.95
2019-05-07T09:57:52.786Z,39.70
2019-05-07T10:00:42.578Z,39.05
2019-05-07T10:03:32.347Z,39.15
2019-05-07T10:06:22.920Z,39.27
2019-05-07T10:09:11.994Z,39.03
2019-05-07T10:12:07.918Z,41.65
2019-05-07T10:14:56.377Z,45.55
2019-05-07T10:17:46.326Z,38.48
2019-05-07T10:20:35.741Z,40.08
2019-05-07T10:23:24.064Z,38.70
2019-05-07T10:26:12.759Z,40.55
2019-05-07T10:29:02.139Z,40.60
2019-05-07T10:31:52.736Z,38.75
2019-05-07T10:34:42.242Z,40.48
2019-05-07T10:37:31.939Z,41.55
2019-05-07T10:40:22.265Z,41.55
2019-05-07T10:43:32.556Z,39.83
2019-05-07T10:49:23.732Z,38.67
2019-05-07T10:52:12.622Z,37.60
2019-05-07T10:55:02.876Z,39.33
2019-05-07T10:57:52.948Z,42.20
2019-05-07T11:00:42.120Z,38.85
2019-05-07T11:03:44.712Z,39.33
2019-05-07T11:06:34.058Z,96.78
2019-05-07T11:09:22.563Z,44.38
2019-05-07T11:12:12.686Z,41.90
2019-05-07T11:15:02.191Z,60.80
2019-05-07T11:21:33.327Z,40.43
2019-05-07T11:24:22.081Z,55.45
2019-05-07T11:27:11.920Z,65.87
2019-05-07T11:30:02.570Z,40.80
2019-05-07T11:32:52.284Z,99.10
2019-05-07T11:35:42.283Z,62.93
2019-05-07T11:38:33.105Z,45.55
2019-05-07T11:41:22.967Z,54.73
2019-05-07T11:44:12.576Z,48.00
2019-05-07T11:47:24.936Z,50.10
2019-05-07T11:50:17.317Z,43.00
2019-05-07T11:53:07.535Z,39.98
2019-05-07T11:55:55.835Z,44.65
2019-05-07T11:58:43.959Z,53.83
2019-05-07T12:01:43.841Z,44.58
2019-05-07T12:04:23.859Z,44.33
2019-05-07T12:07:12.374Z,40.33
2019-05-07T12:10:04.766Z,40.80
2019-05-07T12:12:52.103Z,40.38
2019-05-07T12:15:42.719Z,43.20
2019-05-07T12:18:31.936Z,67.85
2019-05-07T12:21:24.211Z,47.45
2019-05-07T12:24:12.911Z,45.73
2019-05-07T12:27:13.961Z,55.25
2019-05-07T12:30:02.388Z,43.75
2019-05-07T12:32:59.744Z,42.83
2019-05-07T12:35:48.138Z,47.23
2019-05-07T12:38:36.529Z,54.88
2019-05-07T12:41:33.790Z,47.45
2019-05-07T12:44:22.221Z,62.88
2019-05-07T12:47:12.083Z,45.80
2019-05-07T12:50:00.672Z,43.33
2019-05-07T12:52:56.775Z,52.75
2019-05-07T12:55:47.512Z,48.95
2019-05-07T12:58:37.621Z,54.08
2019-05-07T13:01:45.188Z,44.38
2019-05-07T13:04:36.480Z,71.80
2019-05-07T13:07:26.420Z,40.38
2019-05-07T13:10:14.835Z,38.83
2019-05-07T13:13:03.092Z,44.42
2019-05-07T13:15:51.849Z,39.67
2019-05-07T13:18:42.147Z,52.25
2019-05-07T13:21:31.940Z,70.72
2019-05-07T13:24:22.675Z,51.55
2019-05-07T13:27:10.074Z,49.50
2019-05-07T13:29:58.297Z,39.95
2019-05-07T13:32:48.220Z,46.98
2019-05-07T13:35:36.940Z,40.28
2019-05-07T13:38:26.935Z,42.17
2019-05-07T13:41:28.860Z,38.50
2019-05-07T13:44:33.843Z,37.97
2019-05-07T13:47:35.850Z,37.65
2019-05-07T13:50:23.893Z,39.15
2019-05-07T13:53:12.411Z,35.48
2019-05-07T13:56:02.350Z,36.55
2019-05-07T13:58:52.202Z,36.73
2019-05-07T14:01:54.386Z,36.33
2019-05-07T14:07:32.843Z,37.05
2019-05-07T14:10:21.367Z,36.03
2019-05-07T14:13:16.613Z,36.08
2019-05-07T14:16:06.536Z,67.05
2019-05-07T14:18:55.067Z,34.92
2019-05-07T14:21:43.183Z,36.15
2019-05-07T14:24:32.819Z,36.70
2019-05-07T14:27:21.704Z,35.05
2019-05-07T14:30:12.986Z,35.10
2019-05-07T14:33:18.065Z,35.52
2019-05-07T14:39:14.900Z,35.58
2019-05-07T14:42:04.850Z,37.60
2019-05-07T14:44:54.512Z,36.65
2019-05-07T14:47:44.737Z,35.75
2019-05-07T14:50:34.304Z,36.40
2019-05-07T14:53:22.504Z,36.33
2019-05-07T14:56:14.309Z,36.48
2019-05-07T14:59:02.388Z,36.93
2019-05-07T15:01:52.220Z,37.95
2019-05-07T15:04:41.959Z,36.00
2019-05-07T15:07:32.585Z,35.63
2019-05-07T15:10:22.232Z,37.63
2019-05-07T15:13:12.697Z,35.38
2019-05-07T15:16:02.926Z,41.45
2019-05-07T15:18:53.047Z,35.10
2019-05-07T15:21:42.823Z,36.60
2019-05-07T15:24:32.671Z,35.08
2019-05-07T15:27:32.880Z,37.17
2019-05-07T15:30:21.919Z,35.13
2019-05-07T15:33:12.635Z,47.95
2019-05-07T15:36:02.773Z,39.18
2019-05-07T15:38:52.145Z,42.53
2019-05-07T15:41:42.492Z,41.20
2019-05-07T15:44:31.151Z,55.03
2019-05-07T15:47:22.247Z,42.95
2019-05-07T15:50:12.301Z,43.02
2019-05-07T15:53:14.168Z,39.18
2019-05-07T15:56:02.381Z,56.50
2019-05-07T15:58:51.738Z,41.28
2019-05-07T16:01:41.952Z,41.15
2019-05-07T16:04:32.760Z,73.57
2019-05-07T16:07:22.481Z,43.30
2019-05-07T16:10:12.134Z,40.98
2019-05-07T16:13:00.385Z,39.42
2019-05-07T16:15:48.762Z,43.00
2019-05-07T16:18:42.196Z,38.02
2019-05-07T16:21:32.446Z,45.48
2019-05-07T16:24:22.443Z,38.28
2019-05-07T16:27:12.181Z,41.92
2019-05-07T16:30:00.419Z,37.35
2019-05-07T16:32:48.961Z,37.42
2019-05-07T16:35:37.647Z,43.15
2019-05-07T16:38:25.895Z,39.25
2019-05-07T16:41:14.103Z,41.83
2019-05-07T16:44:04.749Z,60.38
2019-05-07T16:46:53.492Z,41.75
2019-05-07T16:49:42.598Z,45.30
2019-05-07T16:52:34.797Z,43.33
2019-05-07T16:55:22.421Z,41.70
2019-05-07T16:58:12.904Z,39.33
2019-05-07T17:01:05.351Z,38.48
2019-05-07T17:06:42.786Z,38.05
2019-05-07T17:09:32.278Z,36.03
2019-05-07T17:12:22.033Z,37.25
2019-05-07T17:15:12.376Z,71.67
2019-05-07T17:18:02.858Z,38.33
2019-05-07T17:20:52.302Z,47.23
2019-05-07T17:23:44.475Z,46.05
2019-05-07T17:26:30.407Z,41.10
2019-05-07T17:29:18.783Z,43.15
2019-05-07T17:32:07.139Z,50.15
2019-05-07T17:34:55.640Z,52.23
2019-05-07T17:37:43.863Z,38.28
2019-05-07T17:40:32.219Z,47.48
2019-05-07T17:43:21.998Z,69.92
2019-05-07T17:46:32.178Z,38.73
2019-05-07T17:49:21.816Z,45.60
2019-05-07T17:52:12.531Z,39.13
2019-05-07T17:55:02.033Z,54.77
2019-05-07T17:57:52.286Z,44.33
2019-05-07T18:00:42.128Z,38.13
2019-05-07T18:03:34.759Z,46.15
2019-05-07T18:06:22.762Z,38.83
2019-05-07T18:09:12.164Z,59.30
2019-05-07T18:12:01.624Z,50.95
2019-05-07T18:14:50.008Z,46.02
2019-05-07T18:20:50.313Z,37.45
2019-05-07T18:23:38.744Z,41.23
2019-05-07T18:26:30.708Z,40.60
2019-05-07T18:29:17.152Z,45.70
2019-05-07T18:32:07.004Z,41.77
2019-05-07T18:34:55.252Z,39.65
2019-05-07T18:37:52.613Z,47.95
2019-05-07T18:40:42.792Z,47.90
2019-05-07T18:43:33.154Z,64.67
2019-05-07T18:46:22.117Z,58.55
2019-05-07T18:49:23.525Z,61.90
2019-05-07T18:52:12.218Z,41.80
2019-05-07T18:55:02.752Z,41.45
2019-05-07T18:57:52.046Z,40.65
2019-05-07T19:00:42.439Z,46.75
2019-05-07T19:03:32.534Z,58.78
2019-05-07T19:06:22.322Z,72.82
2019-05-07T19:09:10.917Z,40.23
2019-05-07T19:11:59.217Z,56.02
2019-05-07T19:14:47.348Z,70.32
2019-05-07T19:17:35.982Z,55.48
2019-05-07T19:20:24.359Z,467.83
2019-05-07T19:23:12.834Z,209.60
2019-05-07T19:26:20.830Z,176.53
2019-05-07T19:29:09.188Z,210.70
2019-05-07T19:31:57.684Z,273.45
2019-05-07T19:34:46.428Z,218.97
2019-05-07T19:37:34.680Z,264.42
2019-05-07T19:40:22.827Z,248.85
2019-05-07T19:43:11.289Z,293.35
2019-05-07T19:45:59.688Z,245.02
2019-05-07T19:48:49.351Z,249.27
2019-05-07T19:51:37.855Z,267.90
2019-05-07T19:54:26.348Z,217.72
2019-05-07T19:57:16.383Z,231.15
2019-05-07T20:00:06.627Z,228.83
2019-05-07T20:03:00.890Z,226.15
2019-05-07T20:05:49.473Z,191.70
2019-05-07T20:08:38.985Z,184.72
2019-05-07T20:11:35.033Z,181.63
2019-05-07T20:14:23.207Z,182.32
2019-05-07T20:17:33.457Z,189.07
2019-05-07T20:20:22.248Z,176.15
2019-05-07T20:23:12.029Z,172.72
2019-05-07T20:26:03.043Z,159.63
2019-05-07T20:28:52.591Z,153.85
2019-05-07T20:31:42.255Z,153.12
2019-05-07T20:34:32.928Z,148.53
2019-05-07T20:37:21.961Z,154.50
2019-05-07T20:40:12.202Z,146.87
2019-05-07T20:43:01.949Z,154.30
2019-05-07T20:45:51.842Z,134.37
2019-05-07T20:48:42.321Z,133.12
2019-05-07T20:51:32.573Z,124.67
2019-05-07T20:54:25.023Z,125.85
2019-05-07T21:00:14.055Z,115.35
2019-05-07T21:03:23.696Z,144.22
2019-05-07T21:06:11.675Z,111.08
2019-05-07T21:08:59.935Z,115.55
2019-05-07T21:11:48.200Z,107.52
2019-05-07T21:14:36.483Z,109.45
2019-05-07T21:17:24.743Z,112.25
2019-05-07T21:20:13.088Z,101.87
2019-05-07T21:23:02.703Z,97.15
2019-05-07T21:25:52.826Z,98.60
2019-05-07T21:28:43.243Z,100.58
2019-05-07T21:31:32.285Z,97.20
2019-05-07T21:34:22.838Z,86.75
2019-05-07T21:37:12.560Z,86.63
2019-05-07T21:40:02.435Z,101.85
2019-05-07T21:42:52.055Z,92.30
2019-05-07T21:45:42.307Z,94.03
2019-05-07T21:48:32.760Z,86.72
2019-05-07T21:51:22.640Z,82.12
2019-05-07T21:54:12.131Z,74.10
2019-05-07T21:57:04.930Z,83.80
2019-05-07T22:02:43.240Z,71.45
2019-05-07T22:05:31.776Z,78.20
2019-05-07T22:08:21.872Z,77.12
2019-05-07T22:11:12.369Z,79.17
2019-05-07T22:14:02.085Z,68.57
2019-05-07T22:16:54.303Z,67.58
2019-05-07T22:19:42.519Z,69.97
2019-05-07T22:22:32.003Z,70.70
2019-05-07T22:25:22.163Z,63.55
2019-05-07T22:28:13.378Z,62.93
2019-05-07T22:31:03.949Z,62.13
2019-05-07T22:33:53.699Z,61.58
2019-05-07T22:36:43.147Z,74.22
2019-05-07T22:39:39.047Z,60.58
2019-05-07T22:42:28.857Z,67.87
2019-05-07T22:45:17.255Z,59.08
2019-05-07T22:48:05.315Z,57.90
2019-05-07T22:50:53.519Z,74.95
2019-05-07T22:53:41.892Z,58.70
2019-05-07T22:56:48.091Z,57.53
2019-05-07T22:59:36.242Z,56.75
2019-05-07T23:05:35.802Z,54.73
2019-05-07T23:08:24.054Z,54.10
2019-05-07T23:11:12.557Z,62.98
2019-05-07T23:14:02.604Z,54.53
2019-05-07T23:16:55.025Z,52.80
2019-05-07T23:19:41.932Z,52.88
2019-05-07T23:22:32.464Z,52.83
2019-05-07T23:25:24.244Z,51.83
2019-05-07T23:28:12.411Z,52.33
2019-05-07T23:31:02.409Z,51.35
2019-05-07T23:33:52.367Z,49.50
2019-05-07T23:36:42.193Z,48.68
2019-05-07T23:39:32.251Z,66.82
2019-05-07T23:42:22.035Z,50.35
2019-05-07T23:45:12.452Z,48.52
2019-05-07T23:48:02.674Z,48.75
2019-05-07T23:50:52.377Z,47.35
2019-05-07T23:53:40.057Z,49.73
2019-05-07T23:56:30.241Z,48.38
2019-05-07T23:59:22.006Z,46.40
